<?xml version='1.0' encoding='UTF-8'?><gpx version="1.1" creator="JPX - https://github.com/jenetics/jpx" xmlns="http://www.topografix.com/GPX/1/1"><trk><trkseg><trkpt lat="37.8351469891776" lon="-25.75854208865102"><ele>755.5714285714286</ele><time>2026-04-29T16:42:22Z</time></trkpt><trkpt lat="37.83518947430147" lon="-25.758473400167894"><ele>756.1428571428572</ele><time>2026-04-29T16:42:30Z</time></trkpt><trkpt lat="37.835248797145624" lon="-25.758441649896124"><ele>756.7142857142858</ele><time>2026-04-29T16:42:36Z</time></trkpt><trkpt lat="37.83531818081626" lon="-25.75839389682401"><ele>757.2857142857142</ele><time>2026-04-29T16:42:43Z</time></trkpt><trkpt lat="37.83538874958465" lon="-25.758377163147593"><ele>757.8571428571429</ele><time>2026-04-29T16:42:49Z</time></trkpt><trkpt lat="37.835452030577" lon="-25.758318649943156"><ele>758.4285714285714</ele><time>2026-04-29T16:42:54Z</time></trkpt><trkpt lat="37.83551779170076" lon="-25.758270547529015"><ele>759.0</ele><time>2026-04-29T16:42:59Z</time></trkpt><trkpt lat="37.83558806603999" lon="-25.758252674093566"><ele>759.0</ele><time>2026-04-29T16:43:05Z</time></trkpt><trkpt lat="37.835655034381354" lon="-25.758237166865275"><ele>759.0</ele><time>2026-04-29T16:43:10Z</time></trkpt><trkpt lat="37.83570977687428" lon="-25.758195646850208"><ele>759.0</ele><time>2026-04-29T16:43:15Z</time></trkpt><trkpt lat="37.835770928648664" lon="-25.75816065612981"><ele>759.0</ele><time>2026-04-29T16:43:20Z</time></trkpt><trkpt lat="37.835830024990805" lon="-25.758131250837895"><ele>759.0</ele><time>2026-04-29T16:43:25Z</time></trkpt><trkpt lat="37.83589672989275" lon="-25.75809563871069"><ele>759.0</ele><time>2026-04-29T16:43:29.999Z</time></trkpt><trkpt lat="37.835966240267126" lon="-25.7580869653043"><ele>759.0</ele><time>2026-04-29T16:43:34.999Z</time></trkpt><trkpt lat="37.836016870026555" lon="-25.758037156640512"><ele>759.4285714285714</ele><time>2026-04-29T16:43:39.999Z</time></trkpt><trkpt lat="37.836075949143876" lon="-25.757992571921037"><ele>759.8571428571429</ele><time>2026-04-29T16:43:44.999Z</time></trkpt><trkpt lat="37.83614227473982" lon="-25.75798376122536"><ele>760.2857142857142</ele><time>2026-04-29T16:43:49.999Z</time></trkpt><trkpt lat="37.836208430132054" lon="-25.757995317390304"><ele>760.7142857142858</ele><time>2026-04-29T16:43:54.999Z</time></trkpt><trkpt lat="37.836261962996076" lon="-25.757933949652827"><ele>761.1428571428572</ele><time>2026-04-29T16:44:00.999Z</time></trkpt><trkpt lat="37.83633371418618" lon="-25.75790676775449"><ele>761.5714285714286</ele><time>2026-04-29T16:44:07.999Z</time></trkpt><trkpt lat="37.83638455312787" lon="-25.757854627239173"><ele>762.0</ele><time>2026-04-29T16:44:11.999Z</time></trkpt><trkpt lat="37.836435932019995" lon="-25.757799096180413"><ele>762.0</ele><time>2026-04-29T16:44:16Z</time></trkpt><trkpt lat="37.83650322968451" lon="-25.757761852336188"><ele>762.0</ele><time>2026-04-29T16:44:21Z</time></trkpt><trkpt lat="37.836571021253256" lon="-25.75774166468092"><ele>762.0</ele><time>2026-04-29T16:44:26Z</time></trkpt><trkpt lat="37.83662761733225" lon="-25.757703486799628"><ele>762.0</ele><time>2026-04-29T16:44:31Z</time></trkpt><trkpt lat="37.83668932633907" lon="-25.757649893729834"><ele>762.0</ele><time>2026-04-29T16:44:36Z</time></trkpt><trkpt lat="37.83674437091188" lon="-25.757594512283713"><ele>762.0</ele><time>2026-04-29T16:44:42Z</time></trkpt><trkpt lat="37.836811711523595" lon="-25.757610388190383"><ele>762.0</ele><time>2026-04-29T16:44:47Z</time></trkpt><trkpt lat="37.836879705902206" lon="-25.75760206544972"><ele>761.7142857142857</ele><time>2026-04-29T16:44:53Z</time></trkpt><trkpt lat="37.83694560459801" lon="-25.757559511002768"><ele>761.4285714285714</ele><time>2026-04-29T16:44:58Z</time></trkpt><trkpt lat="37.83700680300382" lon="-25.757520290752876"><ele>761.1428571428571</ele><time>2026-04-29T16:45:04Z</time></trkpt><trkpt lat="37.837075717504106" lon="-25.757501139748566"><ele>760.8571428571429</ele><time>2026-04-29T16:45:09Z</time></trkpt><trkpt lat="37.83715096497522" lon="-25.757511559484715"><ele>760.5714285714287</ele><time>2026-04-29T16:45:14Z</time></trkpt><trkpt lat="37.83718965740839" lon="-25.75743525870582"><ele>760.2857142857143</ele><time>2026-04-29T16:45:18Z</time></trkpt><trkpt lat="37.837248332527594" lon="-25.75738515281963"><ele>760.0</ele><time>2026-04-29T16:45:24Z</time></trkpt><trkpt lat="37.837320478099414" lon="-25.757384403049045"><ele>760.0</ele><time>2026-04-29T16:45:30Z</time></trkpt><trkpt lat="37.83738416616092" lon="-25.75736199597733"><ele>760.0</ele><time>2026-04-29T16:45:34Z</time></trkpt><trkpt lat="37.837454187898395" lon="-25.757326901596482"><ele>760.0</ele><time>2026-04-29T16:45:38.999Z</time></trkpt><trkpt lat="37.83752309818358" lon="-25.75728518185097"><ele>760.0</ele><time>2026-04-29T16:45:43.999Z</time></trkpt><trkpt lat="37.8375903477506" lon="-25.757312403346624"><ele>760.0</ele><time>2026-04-29T16:45:47.999Z</time></trkpt><trkpt lat="37.837646338261024" lon="-25.757359292795567"><ele>760.0</ele><time>2026-04-29T16:45:52.999Z</time></trkpt><trkpt lat="37.837699988733945" lon="-25.75741935430502"><ele>760.0</ele><time>2026-04-29T16:45:57.999Z</time></trkpt><trkpt lat="37.83772894681917" lon="-25.75751101324348"><ele>760.2857142857143</ele><time>2026-04-29T16:46:03.999Z</time></trkpt><trkpt lat="37.837747074747575" lon="-25.757595121819605"><ele>760.5714285714287</ele><time>2026-04-29T16:46:09.999Z</time></trkpt><trkpt lat="37.83775212945176" lon="-25.75767943941295"><ele>760.8571428571429</ele><time>2026-04-29T16:46:14.999Z</time></trkpt><trkpt lat="37.83778553329114" lon="-25.75776486883123"><ele>761.1428571428571</ele><time>2026-04-29T16:46:21Z</time></trkpt><trkpt lat="37.83784726991822" lon="-25.7577969474244"><ele>761.4285714285714</ele><time>2026-04-29T16:46:26Z</time></trkpt><trkpt lat="37.8379012168893" lon="-25.757850167799774"><ele>761.7142857142857</ele><time>2026-04-29T16:46:31Z</time></trkpt><trkpt lat="37.837959932833996" lon="-25.757906771855907"><ele>762.0</ele><time>2026-04-29T16:46:36Z</time></trkpt><trkpt lat="37.83802108605555" lon="-25.757955732532157"><ele>762.1428571428571</ele><time>2026-04-29T16:46:41Z</time></trkpt><trkpt lat="37.83807811323789" lon="-25.757999186421273"><ele>762.2857142857143</ele><time>2026-04-29T16:46:46Z</time></trkpt><trkpt lat="37.83814160731157" lon="-25.75804438897011"><ele>762.4285714285714</ele><time>2026-04-29T16:46:51Z</time></trkpt><trkpt lat="37.83819852833055" lon="-25.7580857177976"><ele>762.5714285714286</ele><time>2026-04-29T16:46:56Z</time></trkpt><trkpt lat="37.83824404951283" lon="-25.75815786917266"><ele>762.7142857142858</ele><time>2026-04-29T16:47:05Z</time></trkpt><trkpt lat="37.838293976977646" lon="-25.75821879642867"><ele>762.8571428571429</ele><time>2026-04-29T16:47:09Z</time></trkpt><trkpt lat="37.83833612493963" lon="-25.758291479186887"><ele>763.0</ele><time>2026-04-29T16:47:15Z</time></trkpt><trkpt lat="37.838328243941035" lon="-25.758377463091794"><ele>763.0</ele><time>2026-04-29T16:47:21Z</time></trkpt><trkpt lat="37.83837217807403" lon="-25.7584569426881"><ele>763.0</ele><time>2026-04-29T16:47:29Z</time></trkpt><trkpt lat="37.83840121890493" lon="-25.75853955066609"><ele>763.0</ele><time>2026-04-29T16:47:35Z</time></trkpt><trkpt lat="37.838448907276906" lon="-25.75859222092409"><ele>763.0</ele><time>2026-04-29T16:47:39Z</time></trkpt><trkpt lat="37.838489779743796" lon="-25.75867737972482"><ele>763.0</ele><time>2026-04-29T16:47:44Z</time></trkpt><trkpt lat="37.83846099120229" lon="-25.758757547863404"><ele>763.0</ele><time>2026-04-29T16:47:47Z</time></trkpt><trkpt lat="37.838425657015826" lon="-25.758841364388044"><ele>763.0</ele><time>2026-04-29T16:47:52Z</time></trkpt><trkpt lat="37.838432504722256" lon="-25.758925201422723"><ele>763.7142857142857</ele><time>2026-04-29T16:47:58Z</time></trkpt><trkpt lat="37.83844042090407" lon="-25.75900909952778"><ele>764.4285714285714</ele><time>2026-04-29T16:48:03Z</time></trkpt><trkpt lat="37.83846944592366" lon="-25.759091001801313"><ele>765.1428571428571</ele><time>2026-04-29T16:48:09Z</time></trkpt><trkpt lat="37.83850022695586" lon="-25.759171408474675"><ele>765.8571428571429</ele><time>2026-04-29T16:48:13.999Z</time></trkpt><trkpt lat="37.83854046015191" lon="-25.759238465287083"><ele>766.5714285714286</ele><time>2026-04-29T16:48:18.999Z</time></trkpt><trkpt lat="37.838593070070196" lon="-25.759299017018968"><ele>767.2857142857142</ele><time>2026-04-29T16:48:23.999Z</time></trkpt><trkpt lat="37.838670988677826" lon="-25.759320178997804"><ele>768.0</ele><time>2026-04-29T16:48:30Z</time></trkpt><trkpt lat="37.838735789643906" lon="-25.75935861308073"><ele>769.8571428571428</ele><time>2026-04-29T16:48:35Z</time></trkpt><trkpt lat="37.838793407321326" lon="-25.75940332493623"><ele>771.7142857142857</ele><time>2026-04-29T16:48:41Z</time></trkpt><trkpt lat="37.8388509269024" lon="-25.759455377822295"><ele>773.5714285714286</ele><time>2026-04-29T16:48:46Z</time></trkpt><trkpt lat="37.83890511797523" lon="-25.759497967835024"><ele>775.4285714285713</ele><time>2026-04-29T16:48:52Z</time></trkpt><trkpt lat="37.83896576368478" lon="-25.759548354353065"><ele>777.2857142857143</ele><time>2026-04-29T16:48:57Z</time></trkpt><trkpt lat="37.839024770912" lon="-25.759585770342124"><ele>779.1428571428571</ele><time>2026-04-29T16:49:01Z</time></trkpt><trkpt lat="37.83908076482281" lon="-25.759633076152774"><ele>781.0</ele><time>2026-04-29T16:49:06Z</time></trkpt><trkpt lat="37.839154756355626" lon="-25.759644026446733"><ele>780.9999999999999</ele><time>2026-04-29T16:49:11Z</time></trkpt><trkpt lat="37.83921365173643" lon="-25.75970994590143"><ele>781.0</ele><time>2026-04-29T16:49:16Z</time></trkpt><trkpt lat="37.839262159939096" lon="-25.75977165492835"><ele>781.0</ele><time>2026-04-29T16:49:21Z</time></trkpt><trkpt lat="37.839347935780175" lon="-25.759810282809266"><ele>781.0</ele><time>2026-04-29T16:49:28Z</time></trkpt><trkpt lat="37.839408219997345" lon="-25.759843974306733"><ele>780.9999999999999</ele><time>2026-04-29T16:49:32Z</time></trkpt><trkpt lat="37.83944174119786" lon="-25.759919382056637"><ele>781.0</ele><time>2026-04-29T16:49:37Z</time></trkpt><trkpt lat="37.839508622930836" lon="-25.759969083319707"><ele>781.4285714285714</ele><time>2026-04-29T16:49:44Z</time></trkpt><trkpt lat="37.839565484009285" lon="-25.76000593001224"><ele>781.8571428571429</ele><time>2026-04-29T16:49:50Z</time></trkpt><trkpt lat="37.83961178134801" lon="-25.760068244632777"><ele>782.2857142857142</ele><time>2026-04-29T16:49:54Z</time></trkpt><trkpt lat="37.83968266425289" lon="-25.760083415895764"><ele>782.7142857142858</ele><time>2026-04-29T16:49:58Z</time></trkpt><trkpt lat="37.83973995693255" lon="-25.760126995611213"><ele>783.1428571428571</ele><time>2026-04-29T16:50:02Z</time></trkpt><trkpt lat="37.83980592684016" lon="-25.760156773452145"><ele>783.5714285714286</ele><time>2026-04-29T16:50:07Z</time></trkpt><trkpt lat="37.839862960956516" lon="-25.760199336752983"><ele>784.0</ele><time>2026-04-29T16:50:12Z</time></trkpt><trkpt lat="37.83992770462795" lon="-25.760221555840413"><ele>784.0</ele><time>2026-04-29T16:50:17Z</time></trkpt><trkpt lat="37.83999103732435" lon="-25.760234299902546"><ele>784.0</ele><time>2026-04-29T16:50:22Z</time></trkpt><trkpt lat="37.84005514085719" lon="-25.760262001010055"><ele>784.0</ele><time>2026-04-29T16:50:26.999Z</time></trkpt><trkpt lat="37.84011720592405" lon="-25.760288640511966"><ele>784.0</ele><time>2026-04-29T16:50:31.999Z</time></trkpt><trkpt lat="37.84018324330439" lon="-25.760309847784193"><ele>784.0</ele><time>2026-04-29T16:50:37Z</time></trkpt><trkpt lat="37.840242010387826" lon="-25.7603700352849"><ele>784.0</ele><time>2026-04-29T16:50:42Z</time></trkpt><trkpt lat="37.840313366624905" lon="-25.760383473482108"><ele>784.0</ele><time>2026-04-29T16:50:48Z</time></trkpt><trkpt lat="37.84039155859952" lon="-25.76038498878571"><ele>783.2857142857143</ele><time>2026-04-29T16:50:55Z</time></trkpt><trkpt lat="37.84046481181332" lon="-25.760394237167556"><ele>782.5714285714286</ele><time>2026-04-29T16:51:02Z</time></trkpt><trkpt lat="37.840534880605325" lon="-25.760412661491923"><ele>781.8571428571429</ele><time>2026-04-29T16:51:08Z</time></trkpt><trkpt lat="37.84060553332756" lon="-25.760416608729937"><ele>781.1428571428571</ele><time>2026-04-29T16:51:14Z</time></trkpt><trkpt lat="37.84067333166258" lon="-25.760434934049197"><ele>780.4285714285714</ele><time>2026-04-29T16:51:20Z</time></trkpt><trkpt lat="37.84073150977966" lon="-25.76046877129366"><ele>779.7142857142858</ele><time>2026-04-29T16:51:24Z</time></trkpt><trkpt lat="37.84080173460269" lon="-25.76045073111376"><ele>779.0</ele><time>2026-04-29T16:51:30Z</time></trkpt><trkpt lat="37.84086791795569" lon="-25.760464455211007"><ele>779.0000000000001</ele><time>2026-04-29T16:51:36Z</time></trkpt><trkpt lat="37.8409352315174" lon="-25.760490858294194"><ele>779.0</ele><time>2026-04-29T16:51:42Z</time></trkpt><trkpt lat="37.84101898879218" lon="-25.760520604808367"><ele>779.0</ele><time>2026-04-29T16:51:49Z</time></trkpt><trkpt lat="37.841090881666865" lon="-25.760494635053856"><ele>779.0</ele><time>2026-04-29T16:51:54Z</time></trkpt><trkpt lat="37.84115215443367" lon="-25.760516291917362"><ele>779.0</ele><time>2026-04-29T16:51:59Z</time></trkpt><trkpt lat="37.84122589747527" lon="-25.760523735593836"><ele>779.0000000000001</ele><time>2026-04-29T16:52:04Z</time></trkpt><trkpt lat="37.84128226243908" lon="-25.76056294006268"><ele>779.0</ele><time>2026-04-29T16:52:07Z</time></trkpt><trkpt lat="37.84133568713347" lon="-25.760610113734423"><ele>778.7142857142858</ele><time>2026-04-29T16:52:11Z</time></trkpt><trkpt lat="37.8414097638459" lon="-25.760619407201652"><ele>778.4285714285714</ele><time>2026-04-29T16:52:16Z</time></trkpt><trkpt lat="37.84147238141465" lon="-25.760633634729786"><ele>778.1428571428571</ele><time>2026-04-29T16:52:20Z</time></trkpt><trkpt lat="37.841541564668944" lon="-25.760643662136733"><ele>777.8571428571429</ele><time>2026-04-29T16:52:25Z</time></trkpt><trkpt lat="37.84160433419636" lon="-25.760611249177373"><ele>777.5714285714286</ele><time>2026-04-29T16:52:31.999Z</time></trkpt><trkpt lat="37.84166707941127" lon="-25.760641484704358"><ele>777.2857142857143</ele><time>2026-04-29T16:52:36.999Z</time></trkpt><trkpt lat="37.84172391941037" lon="-25.760605717003592"><ele>777.0</ele><time>2026-04-29T16:52:41Z</time></trkpt><trkpt lat="37.84180138115538" lon="-25.760592960383065"><ele>776.1428571428571</ele><time>2026-04-29T16:52:48Z</time></trkpt><trkpt lat="37.841869772236635" lon="-25.76058911568128"><ele>775.2857142857142</ele><time>2026-04-29T16:52:53Z</time></trkpt><trkpt lat="37.841934435144296" lon="-25.760607221297978"><ele>774.4285714285714</ele><time>2026-04-29T16:53:00Z</time></trkpt><trkpt lat="37.84200059764463" lon="-25.76061197378596"><ele>773.5714285714286</ele><time>2026-04-29T16:53:03Z</time></trkpt><trkpt lat="37.842065597531004" lon="-25.760573020216086"><ele>772.7142857142857</ele><time>2026-04-29T16:53:08Z</time></trkpt><trkpt lat="37.84213164514776" lon="-25.76057204488876"><ele>771.8571428571429</ele><time>2026-04-29T16:53:12Z</time></trkpt><trkpt lat="37.842203983416354" lon="-25.760598187596628"><ele>771.0</ele><time>2026-04-29T16:53:17Z</time></trkpt><trkpt lat="37.84224976719333" lon="-25.760662497396808"><ele>771.0</ele><time>2026-04-29T16:53:21Z</time></trkpt><trkpt lat="37.842289679783384" lon="-25.76073054576012"><ele>771.0</ele><time>2026-04-29T16:53:25Z</time></trkpt><trkpt lat="37.84235560086937" lon="-25.76075772379542"><ele>771.0</ele><time>2026-04-29T16:53:30Z</time></trkpt><trkpt lat="37.84241850799353" lon="-25.76072847864817"><ele>771.0</ele><time>2026-04-29T16:53:36Z</time></trkpt><trkpt lat="37.8424696037412" lon="-25.760652959894248"><ele>771.0</ele><time>2026-04-29T16:53:49Z</time></trkpt><trkpt lat="37.84253264537711" lon="-25.760663489496274"><ele>771.0</ele><time>2026-04-29T16:53:55Z</time></trkpt><trkpt lat="37.842600323358326" lon="-25.76073090436394"><ele>771.0</ele><time>2026-04-29T16:55:12Z</time></trkpt><trkpt lat="37.84261985444087" lon="-25.760815812739363"><ele>772.8571428571429</ele><time>2026-04-29T16:55:20Z</time></trkpt><trkpt lat="37.84263742973041" lon="-25.760896600236702"><ele>774.7142857142857</ele><time>2026-04-29T16:55:29Z</time></trkpt><trkpt lat="37.84264265768023" lon="-25.760981227206944"><ele>776.5714285714286</ele><time>2026-04-29T16:55:41Z</time></trkpt><trkpt lat="37.84263277916672" lon="-25.76107171966948"><ele>778.4285714285714</ele><time>2026-04-29T16:55:49Z</time></trkpt><trkpt lat="37.84262828101159" lon="-25.76117058526569"><ele>780.2857142857142</ele><time>2026-04-29T16:56:13Z</time></trkpt><trkpt lat="37.842611204130726" lon="-25.761248261906715"><ele>782.1428571428571</ele><time>2026-04-29T16:56:19.999Z</time></trkpt><trkpt lat="37.84261264207149" lon="-25.76133013039957"><ele>784.0</ele><time>2026-04-29T16:56:27.999Z</time></trkpt><trkpt lat="37.84259960020141" lon="-25.76141455725846"><ele>784.0</ele><time>2026-04-29T16:56:35.999Z</time></trkpt><trkpt lat="37.84259504999179" lon="-25.761502872108984"><ele>784.0</ele><time>2026-04-29T16:57:05Z</time></trkpt><trkpt lat="37.842567583635905" lon="-25.76157909514373"><ele>784.0</ele><time>2026-04-29T16:57:12Z</time></trkpt><trkpt lat="37.842562709928124" lon="-25.761669555223524"><ele>784.0</ele><time>2026-04-29T16:57:18Z</time></trkpt><trkpt lat="37.84254924898718" lon="-25.76176511472841"><ele>784.0</ele><time>2026-04-29T16:57:25Z</time></trkpt><trkpt lat="37.842551398207966" lon="-25.761849340160687"><ele>784.0</ele><time>2026-04-29T16:57:31Z</time></trkpt><trkpt lat="37.84254429899498" lon="-25.761934943550962"><ele>784.0</ele><time>2026-04-29T16:57:38Z</time></trkpt><trkpt lat="37.84254003720179" lon="-25.762024622959352"><ele>785.2857142857143</ele><time>2026-04-29T16:57:46Z</time></trkpt><trkpt lat="37.8425280905208" lon="-25.762115544653152"><ele>786.5714285714286</ele><time>2026-04-29T16:57:55Z</time></trkpt><trkpt lat="37.842519606390084" lon="-25.762198873742925"><ele>787.8571428571429</ele><time>2026-04-29T16:58:03Z</time></trkpt><trkpt lat="37.842481318708536" lon="-25.762265044227103"><ele>789.1428571428571</ele><time>2026-04-29T16:58:12Z</time></trkpt><trkpt lat="37.84244587718461" lon="-25.762334429104705"><ele>790.4285714285714</ele><time>2026-04-29T16:58:20Z</time></trkpt><trkpt lat="37.842444584478415" lon="-25.7624156421347"><ele>791.7142857142858</ele><time>2026-04-29T16:58:29.999Z</time></trkpt><trkpt lat="37.84243782858261" lon="-25.762495748360784"><ele>793.0</ele><time>2026-04-29T16:58:35.999Z</time></trkpt><trkpt lat="37.842427887709995" lon="-25.76257896324436"><ele>793.0000000000001</ele><time>2026-04-29T16:58:42.999Z</time></trkpt><trkpt lat="37.84239181786368" lon="-25.762648294482727"><ele>793.0</ele><time>2026-04-29T16:58:50.999Z</time></trkpt><trkpt lat="37.842443581111816" lon="-25.762711195049373"><ele>793.0</ele><time>2026-04-29T17:04:33.999Z</time></trkpt><trkpt lat="37.842488520989114" lon="-25.762819403772845"><ele>793.0</ele><time>2026-04-29T17:04:51.999Z</time></trkpt><trkpt lat="37.84251466917957" lon="-25.762894412112164"><ele>793.0</ele><time>2026-04-29T17:04:58.999Z</time></trkpt><trkpt lat="37.84251791551313" lon="-25.76297832449407"><ele>793.0000000000001</ele><time>2026-04-29T17:05:08.999Z</time></trkpt><trkpt lat="37.84254543606417" lon="-25.763059618847407"><ele>793.0</ele><time>2026-04-29T17:05:21.999Z</time></trkpt><trkpt lat="37.84258880303782" lon="-25.76313065218002"><ele>784.0000000000001</ele><time>2026-04-29T17:05:30.999Z</time></trkpt><trkpt lat="37.8426313073141" lon="-25.763203546220378"><ele>775.0</ele><time>2026-04-29T17:05:37.999Z</time></trkpt><trkpt lat="37.84265285996802" lon="-25.763286642719596"><ele>766.0</ele><time>2026-04-29T17:05:49Z</time></trkpt><trkpt lat="37.842694504417466" lon="-25.763362170874203"><ele>757.0</ele><time>2026-04-29T17:05:59Z</time></trkpt><trkpt lat="37.8427418368472" lon="-25.763416852399715"><ele>748.0</ele><time>2026-04-29T17:06:06Z</time></trkpt><trkpt lat="37.84278422526518" lon="-25.76348017059106"><ele>739.0000000000001</ele><time>2026-04-29T17:06:13Z</time></trkpt><trkpt lat="37.84283130804337" lon="-25.76353851872579"><ele>730.0</ele><time>2026-04-29T17:06:21Z</time></trkpt><trkpt lat="37.84277842164793" lon="-25.76348745164083"><ele>730.0000000000001</ele><time>2026-04-29T17:20:39Z</time></trkpt><trkpt lat="37.842732084799316" lon="-25.763414508025257"><ele>730.0</ele><time>2026-04-29T17:20:47Z</time></trkpt><trkpt lat="37.84269498753602" lon="-25.7633428568397"><ele>730.0</ele><time>2026-04-29T17:20:53Z</time></trkpt><trkpt lat="37.84265901547541" lon="-25.763269597163685"><ele>730.0</ele><time>2026-04-29T17:20:59Z</time></trkpt><trkpt lat="37.84261960942139" lon="-25.76319682210466"><ele>730.0</ele><time>2026-04-29T17:21:05Z</time></trkpt><trkpt lat="37.84258086814598" lon="-25.763121023543256"><ele>730.0000000000001</ele><time>2026-04-29T17:21:11Z</time></trkpt><trkpt lat="37.84254041422088" lon="-25.763053696597442"><ele>730.0</ele><time>2026-04-29T17:21:17Z</time></trkpt><trkpt lat="37.84251574929278" lon="-25.762979476809203"><ele>739.3333333333334</ele><time>2026-04-29T17:21:24Z</time></trkpt><trkpt lat="37.84250230837403" lon="-25.76289999944482"><ele>748.6666666666667</ele><time>2026-04-29T17:21:32Z</time></trkpt><trkpt lat="37.84248098427699" lon="-25.762814077830868"><ele>758.0</ele><time>2026-04-29T17:21:40Z</time></trkpt><trkpt lat="37.84244793980648" lon="-25.762736304058638"><ele>767.3333333333334</ele><time>2026-04-29T17:21:48Z</time></trkpt><trkpt lat="37.84241309723533" lon="-25.762658351477082"><ele>776.6666666666666</ele><time>2026-04-29T17:21:54Z</time></trkpt><trkpt lat="37.842267841831536" lon="-25.762640615222562"><ele>786.0</ele><time>2026-04-29T17:23:50Z</time></trkpt><trkpt lat="37.84220023194492" lon="-25.762630745483243"><ele>786.4285714285714</ele><time>2026-04-29T17:23:57Z</time></trkpt><trkpt lat="37.842137588574886" lon="-25.762621062286954"><ele>786.8571428571429</ele><time>2026-04-29T17:24:03Z</time></trkpt><trkpt lat="37.84206162511513" lon="-25.76262220312068"><ele>787.2857142857142</ele><time>2026-04-29T17:24:10Z</time></trkpt><trkpt lat="37.84199036416782" lon="-25.762620544665786"><ele>787.7142857142858</ele><time>2026-04-29T17:24:18Z</time></trkpt><trkpt lat="37.84192653978424" lon="-25.762636625363367"><ele>788.1428571428571</ele><time>2026-04-29T17:24:27Z</time></trkpt><trkpt lat="37.84185918362873" lon="-25.762660026368177"><ele>788.5714285714286</ele><time>2026-04-29T17:24:33Z</time></trkpt><trkpt lat="37.841794029394755" lon="-25.76268926401727"><ele>789.0</ele><time>2026-04-29T17:24:40Z</time></trkpt><trkpt lat="37.84172662922421" lon="-25.762710801976358"><ele>788.9999999999999</ele><time>2026-04-29T17:24:46Z</time></trkpt><trkpt lat="37.84166273268876" lon="-25.762718487825722"><ele>789.0</ele><time>2026-04-29T17:24:53Z</time></trkpt><trkpt lat="37.841589409051174" lon="-25.762725687430446"><ele>789.0</ele><time>2026-04-29T17:25:04Z</time></trkpt><trkpt lat="37.84152298534371" lon="-25.762754864216664"><ele>789.0</ele><time>2026-04-29T17:25:11Z</time></trkpt><trkpt lat="37.84144917003537" lon="-25.762774178578688"><ele>789.0</ele><time>2026-04-29T17:25:17Z</time></trkpt><trkpt lat="37.841383478679056" lon="-25.76279652946809"><ele>788.9999999999999</ele><time>2026-04-29T17:25:23Z</time></trkpt><trkpt lat="37.841318321437825" lon="-25.76278581499935"><ele>789.0</ele><time>2026-04-29T17:25:44Z</time></trkpt><trkpt lat="37.84124615449688" lon="-25.762778910829162"><ele>788.9999999999999</ele><time>2026-04-29T17:25:50Z</time></trkpt><trkpt lat="37.841179443615665" lon="-25.76278336419521"><ele>789.0</ele><time>2026-04-29T17:25:56Z</time></trkpt><trkpt lat="37.8411118257867" lon="-25.762800469916492"><ele>789.0</ele><time>2026-04-29T17:26:08Z</time></trkpt><trkpt lat="37.841039700793516" lon="-25.762790842040584"><ele>789.0</ele><time>2026-04-29T17:26:16Z</time></trkpt><trkpt lat="37.84097790797951" lon="-25.762774260676334"><ele>789.0</ele><time>2026-04-29T17:26:22Z</time></trkpt><trkpt lat="37.84091979435521" lon="-25.76274031989557"><ele>788.9999999999999</ele><time>2026-04-29T17:26:27Z</time></trkpt><trkpt lat="37.840848668852146" lon="-25.762733626772878"><ele>789.0</ele><time>2026-04-29T17:26:33Z</time></trkpt><trkpt lat="37.840784139942016" lon="-25.762722713519402"><ele>788.8571428571428</ele><time>2026-04-29T17:26:39Z</time></trkpt><trkpt lat="37.840711698885016" lon="-25.762726901839486"><ele>788.7142857142857</ele><time>2026-04-29T17:26:46Z</time></trkpt><trkpt lat="37.84064821377962" lon="-25.762677649906482"><ele>788.5714285714286</ele><time>2026-04-29T17:26:52Z</time></trkpt><trkpt lat="37.84057902823472" lon="-25.76267956656396"><ele>788.4285714285713</ele><time>2026-04-29T17:26:58Z</time></trkpt><trkpt lat="37.84051468200982" lon="-25.762659958992742"><ele>788.2857142857143</ele><time>2026-04-29T17:27:04Z</time></trkpt><trkpt lat="37.84044997302472" lon="-25.762649594205044"><ele>788.1428571428571</ele><time>2026-04-29T17:27:10Z</time></trkpt><trkpt lat="37.840394718144374" lon="-25.76260835106864"><ele>788.0</ele><time>2026-04-29T17:27:16Z</time></trkpt><trkpt lat="37.8403261677798" lon="-25.762622381677517"><ele>789.2857142857143</ele><time>2026-04-29T17:27:22Z</time></trkpt><trkpt lat="37.840262927367995" lon="-25.762623268366116"><ele>790.5714285714287</ele><time>2026-04-29T17:27:28Z</time></trkpt><trkpt lat="37.84019315492582" lon="-25.762648671331693"><ele>791.8571428571429</ele><time>2026-04-29T17:27:34Z</time></trkpt><trkpt lat="37.84012760712295" lon="-25.762641926355315"><ele>793.1428571428571</ele><time>2026-04-29T17:27:40Z</time></trkpt><trkpt lat="37.84006094106049" lon="-25.762631669783975"><ele>794.4285714285714</ele><time>2026-04-29T17:27:45Z</time></trkpt><trkpt lat="37.83999361740065" lon="-25.762618553215074"><ele>795.7142857142857</ele><time>2026-04-29T17:27:50Z</time></trkpt><trkpt lat="37.83993008282497" lon="-25.762613212365167"><ele>797.0</ele><time>2026-04-29T17:27:55Z</time></trkpt><trkpt lat="37.83985532961361" lon="-25.762601883557053"><ele>797.0</ele><time>2026-04-29T17:28:01Z</time></trkpt><trkpt lat="37.83978861967452" lon="-25.762625652932826"><ele>797.0</ele><time>2026-04-29T17:28:15Z</time></trkpt><trkpt lat="37.839723581638175" lon="-25.76262004137797"><ele>797.0</ele><time>2026-04-29T17:28:20Z</time></trkpt><trkpt lat="37.83965502727028" lon="-25.762634044135403"><ele>797.0</ele><time>2026-04-29T17:28:26.001Z</time></trkpt><trkpt lat="37.839595817935646" lon="-25.762664550156238"><ele>797.0</ele><time>2026-04-29T17:28:31.001Z</time></trkpt><trkpt lat="37.83953530004997" lon="-25.762706219447367"><ele>797.0</ele><time>2026-04-29T17:28:37.001Z</time></trkpt><trkpt lat="37.83947189177712" lon="-25.76274380908177"><ele>797.0</ele><time>2026-04-29T17:28:43Z</time></trkpt><trkpt lat="37.839411298200794" lon="-25.762782810593688"><ele>795.8571428571428</ele><time>2026-04-29T17:28:49Z</time></trkpt><trkpt lat="37.83935034715854" lon="-25.76282486511521"><ele>794.7142857142858</ele><time>2026-04-29T17:28:56Z</time></trkpt><trkpt lat="37.839288730567176" lon="-25.76288233073026"><ele>793.5714285714286</ele><time>2026-04-29T17:29:02Z</time></trkpt><trkpt lat="37.8392475262741" lon="-25.762943942806228"><ele>792.4285714285713</ele><time>2026-04-29T17:29:08Z</time></trkpt><trkpt lat="37.83919812933526" lon="-25.76301140246388"><ele>791.2857142857142</ele><time>2026-04-29T17:29:15Z</time></trkpt><trkpt lat="37.83916442947268" lon="-25.76307920462649"><ele>790.1428571428571</ele><time>2026-04-29T17:29:22Z</time></trkpt><trkpt lat="37.83911535951618" lon="-25.76315107597084"><ele>789.0</ele><time>2026-04-29T17:29:29Z</time></trkpt><trkpt lat="37.839074080053365" lon="-25.76322419234585"><ele>791.5714285714286</ele><time>2026-04-29T17:29:36Z</time></trkpt><trkpt lat="37.839004733496374" lon="-25.763244141586778"><ele>794.1428571428571</ele><time>2026-04-29T17:29:42Z</time></trkpt><trkpt lat="37.83894398912694" lon="-25.763181243651655"><ele>796.7142857142858</ele><time>2026-04-29T17:30:05Z</time></trkpt><trkpt lat="37.838906183080766" lon="-25.76310758700983"><ele>799.2857142857142</ele><time>2026-04-29T17:30:11Z</time></trkpt><trkpt lat="37.83886219086966" lon="-25.763047746734323"><ele>801.8571428571429</ele><time>2026-04-29T17:30:18Z</time></trkpt><trkpt lat="37.83882490832799" lon="-25.762980153566446"><ele>804.4285714285714</ele><time>2026-04-29T17:30:34.001Z</time></trkpt><trkpt lat="37.838772046231256" lon="-25.762930826703773"><ele>807.0</ele><time>2026-04-29T17:30:52Z</time></trkpt><trkpt lat="37.8386972478056" lon="-25.762897833754856"><ele>807.0000000000001</ele><time>2026-04-29T17:31:59Z</time></trkpt><trkpt lat="37.83863548600254" lon="-25.76291670267786"><ele>807.0</ele><time>2026-04-29T17:32:05Z</time></trkpt><trkpt lat="37.83856859098166" lon="-25.762906735598342"><ele>807.0</ele><time>2026-04-29T17:32:11Z</time></trkpt><trkpt lat="37.838504532352054" lon="-25.762889831282546"><ele>807.0</ele><time>2026-04-29T17:32:17Z</time></trkpt><trkpt lat="37.83843795717334" lon="-25.762917194034138"><ele>807.0</ele><time>2026-04-29T17:32:26Z</time></trkpt><trkpt lat="37.838364001963264" lon="-25.762904918608136"><ele>807.0000000000001</ele><time>2026-04-29T17:32:30.999Z</time></trkpt><trkpt lat="37.83828980285351" lon="-25.76289471823749"><ele>807.0</ele><time>2026-04-29T17:32:38Z</time></trkpt><trkpt lat="37.838211259353066" lon="-25.76287892756547"><ele>805.7142857142858</ele><time>2026-04-29T17:32:50Z</time></trkpt><trkpt lat="37.838130671241544" lon="-25.762893489431864"><ele>804.4285714285714</ele><time>2026-04-29T17:32:55Z</time></trkpt><trkpt lat="37.838056772702366" lon="-25.762880577006587"><ele>803.1428571428571</ele><time>2026-04-29T17:32:58Z</time></trkpt><trkpt lat="37.83797766964576" lon="-25.762871911921685"><ele>801.8571428571429</ele><time>2026-04-29T17:33:11Z</time></trkpt><trkpt lat="37.83791991004744" lon="-25.762910243910145"><ele>800.5714285714286</ele><time>2026-04-29T17:33:15Z</time></trkpt><trkpt lat="37.837854945448086" lon="-25.7629499733657"><ele>799.2857142857143</ele><time>2026-04-29T17:33:20Z</time></trkpt><trkpt lat="37.837796869755316" lon="-25.76299048489804"><ele>798.0</ele><time>2026-04-29T17:33:25Z</time></trkpt><trkpt lat="37.83774566784291" lon="-25.763038093734295"><ele>798.0</ele><time>2026-04-29T17:33:29Z</time></trkpt><trkpt lat="37.83767172762109" lon="-25.76305394827246"><ele>798.0</ele><time>2026-04-29T17:33:34Z</time></trkpt><trkpt lat="37.83760832470757" lon="-25.763075373515683"><ele>798.0</ele><time>2026-04-29T17:33:39Z</time></trkpt><trkpt lat="37.8375312123684" lon="-25.763066983334976"><ele>798.0</ele><time>2026-04-29T17:33:44Z</time></trkpt><trkpt lat="37.837465500715155" lon="-25.76308575452651"><ele>798.0</ele><time>2026-04-29T17:33:48Z</time></trkpt><trkpt lat="37.837406638848655" lon="-25.76305021128571"><ele>798.0</ele><time>2026-04-29T17:33:52Z</time></trkpt><trkpt lat="37.837335418067475" lon="-25.76304170856104"><ele>798.0</ele><time>2026-04-29T17:33:57Z</time></trkpt><trkpt lat="37.83725938807225" lon="-25.763025408994668"><ele>796.0</ele><time>2026-04-29T17:34:25.999Z</time></trkpt><trkpt lat="37.83719620590741" lon="-25.763024152935078"><ele>794.0</ele><time>2026-04-29T17:34:31.999Z</time></trkpt><trkpt lat="37.83712401764011" lon="-25.763029398721617"><ele>792.0</ele><time>2026-04-29T17:34:37.999Z</time></trkpt><trkpt lat="37.83705617393635" lon="-25.763021344859386"><ele>790.0</ele><time>2026-04-29T17:34:59Z</time></trkpt><trkpt lat="37.836980104804184" lon="-25.763036933431575"><ele>788.0</ele><time>2026-04-29T17:35:06Z</time></trkpt><trkpt lat="37.83691693979067" lon="-25.763030034421952"><ele>786.0</ele><time>2026-04-29T17:35:13Z</time></trkpt><trkpt lat="37.83684362841716" lon="-25.763024357125307"><ele>784.0</ele><time>2026-04-29T17:35:22Z</time></trkpt><trkpt lat="37.836780154446934" lon="-25.76303107591909"><ele>781.0</ele><time>2026-04-29T17:35:30Z</time></trkpt><trkpt lat="37.83671992080017" lon="-25.763056097318096"><ele>778.0</ele><time>2026-04-29T17:35:40Z</time></trkpt><trkpt lat="37.83665142532059" lon="-25.763056146975426"><ele>775.0</ele><time>2026-04-29T17:35:51Z</time></trkpt><trkpt lat="37.83657899691845" lon="-25.76303861284816"><ele>772.0</ele><time>2026-04-29T17:36:00Z</time></trkpt><trkpt lat="37.83652589192879" lon="-25.7629927164362"><ele>769.0</ele><time>2026-04-29T17:36:08Z</time></trkpt><trkpt lat="37.83648110670088" lon="-25.76293286639394"><ele>766.0</ele><time>2026-04-29T17:36:18.999Z</time></trkpt><trkpt lat="37.8364396530096" lon="-25.762859044306882"><ele>763.0</ele><time>2026-04-29T17:36:25.999Z</time></trkpt><trkpt lat="37.83638733069492" lon="-25.762803166350302"><ele>763.0</ele><time>2026-04-29T17:36:43.999Z</time></trkpt><trkpt lat="37.836322409600186" lon="-25.762756772065444"><ele>763.0</ele><time>2026-04-29T17:36:55Z</time></trkpt><trkpt lat="37.836290306830215" lon="-25.76268314746329"><ele>763.0</ele><time>2026-04-29T17:37:05Z</time></trkpt><trkpt lat="37.836226186878925" lon="-25.762658360857365"><ele>763.0</ele><time>2026-04-29T17:37:12Z</time></trkpt><trkpt lat="37.83617446412085" lon="-25.762602127440836"><ele>763.0</ele><time>2026-04-29T17:37:19Z</time></trkpt><trkpt lat="37.83610470316724" lon="-25.762566246044727"><ele>763.0</ele><time>2026-04-29T17:37:28Z</time></trkpt><trkpt lat="37.83603121791446" lon="-25.762527503670487"><ele>763.0</ele><time>2026-04-29T17:37:34Z</time></trkpt><trkpt lat="37.83598059594772" lon="-25.762474451852995"><ele>761.7142857142857</ele><time>2026-04-29T17:37:39Z</time></trkpt><trkpt lat="37.83591978764804" lon="-25.76244513632762"><ele>760.4285714285714</ele><time>2026-04-29T17:37:44Z</time></trkpt><trkpt lat="37.83586025422718" lon="-25.762391725325582"><ele>759.1428571428571</ele><time>2026-04-29T17:37:51Z</time></trkpt><trkpt lat="37.83579574211198" lon="-25.762374530002862"><ele>757.8571428571429</ele><time>2026-04-29T17:37:59Z</time></trkpt><trkpt lat="37.83574084240818" lon="-25.76230225245451"><ele>756.5714285714286</ele><time>2026-04-29T17:38:04.999Z</time></trkpt><trkpt lat="37.83569337918921" lon="-25.762241360847188"><ele>755.2857142857142</ele><time>2026-04-29T17:38:10.999Z</time></trkpt><trkpt lat="37.835646457713146" lon="-25.762184190732267"><ele>754.0</ele><time>2026-04-29T17:38:39.999Z</time></trkpt><trkpt lat="37.8356026061927" lon="-25.76212631221746"><ele>753.9999999999999</ele><time>2026-04-29T17:38:45.999Z</time></trkpt><trkpt lat="37.83556691233125" lon="-25.76204374154187"><ele>754.0</ele><time>2026-04-29T17:39:05Z</time></trkpt><trkpt lat="37.8355156710396" lon="-25.76199495849369"><ele>754.0</ele><time>2026-04-29T17:39:23Z</time></trkpt><trkpt lat="37.835443476548356" lon="-25.761962807570264"><ele>754.0</ele><time>2026-04-29T17:39:30Z</time></trkpt><trkpt lat="37.83538212752785" lon="-25.761917184355774"><ele>754.0</ele><time>2026-04-29T17:39:36Z</time></trkpt><trkpt lat="37.835322516655815" lon="-25.761871157829866"><ele>753.9999999999999</ele><time>2026-04-29T17:39:44Z</time></trkpt><trkpt lat="37.835261140077584" lon="-25.761839894910104"><ele>754.0</ele><time>2026-04-29T17:39:49Z</time></trkpt><trkpt lat="37.835195487308766" lon="-25.76180315406173"><ele>765.0</ele><time>2026-04-29T17:39:55Z</time></trkpt><trkpt lat="37.83513131169923" lon="-25.761765885168142"><ele>759.0</ele><time>2026-04-29T17:40:01Z</time></trkpt><trkpt lat="37.83507269558203" lon="-25.76172479186324"><ele>759.0</ele><time>2026-04-29T17:40:06Z</time></trkpt><trkpt lat="37.8350143887987" lon="-25.761688763441235"><ele>759.0</ele><time>2026-04-29T17:40:11Z</time></trkpt><trkpt lat="37.834961492432946" lon="-25.761638135776632"><ele>759.0</ele><time>2026-04-29T17:40:15.999Z</time></trkpt><trkpt lat="37.83491274462424" lon="-25.76158599386557"><ele>759.0</ele><time>2026-04-29T17:40:20.999Z</time></trkpt></trkseg></trk></gpx>